Time;durP1;ratioP1;P1;durP2;ratioP2;P2;SDS_P1;SDS_P2;PMS_P1;PMS_P2;Temp;Humidity;BMP_temperature;BMP_pressure;BME280_temperature;BME280_humidity;BME280_pressure;Samples;Min_cycle;Max_cycle;Signal;HPM_P1;HPM_P2
2023/01/20 00:01:00;;;;;;;19.50;11.02;;;;;;;7.66;56.05;100599.69;4925667;28;97463;-69
2023/01/20 00:03:27;;;;;;;23.73;12.00;;;;;;;7.76;55.64;100606.44;4925834;28;99411;-68
2023/01/20 00:05:55;;;;;;;23.38;12.32;;;;;;;7.57;56.35;100606.03;4922318;28;99354;-69
2023/01/20 00:08:21;;;;;;;22.95;12.07;;;;;;;7.39;57.04;100602.13;4936191;28;96818;-68
2023/01/20 00:10:48;;;;;;;25.52;12.35;;;;;;;7.53;56.65;100605.28;4928169;28;96801;-69
2023/01/20 00:13:14;;;;;;;20.92;10.88;;;;;;;7.49;56.99;100603.59;4924968;28;101349;-68
2023/01/20 00:15:41;;;;;;;26.40;11.85;;;;;;;7.33;57.13;100604.03;4929882;28;97572;-70
2023/01/20 00:18:07;;;;;;;21.35;12.07;;;;;;;7.16;57.45;100612.31;4935084;28;98165;-68
2023/01/20 00:20:34;;;;;;;22.00;12.15;;;;;;;7.00;58.31;100613.59;4929790;28;96909;-69
2023/01/20 00:23:01;;;;;;;20.52;10.85;;;;;;;7.21;58.02;100618.34;4925971;28;97199;-68
2023/01/20 00:25:28;;;;;;;22.88;11.48;;;;;;;7.51;56.74;100616.72;4933529;28;99301;-68
2023/01/20 00:27:54;;;;;;;24.15;11.48;;;;;;;7.72;56.30;100612.69;4935858;28;97216;-69
2023/01/20 00:30:21;;;;;;;25.13;11.90;;;;;;;7.77;55.79;100618.69;4932564;28;96811;-69
2023/01/20 00:32:48;;;;;;;22.70;10.68;;;;;;;7.77;55.04;100619.53;4931139;28;98921;-69
2023/01/20 00:35:14;;;;;;;24.52;11.63;;;;;;;7.86;54.77;100623.72;4928790;28;98807;-69
2023/01/20 00:37:43;;;;;;;24.70;11.40;;;;;;;7.91;54.52;100619.19;4925916;28;97176;-69
2023/01/20 00:40:11;;;;;;;20.05;11.10;;;;;;;7.69;54.57;100623.28;4926913;28;96936;-73
2023/01/20 00:42:38;;;;;;;26.67;11.85;;;;;;;7.55;55.00;100629.75;4924747;28;99175;-68
2023/01/20 00:45:05;;;;;;;27.65;10.85;;;;;;;7.30;55.57;100633.88;4932456;28;98962;-69
2023/01/20 00:47:31;;;;;;;25.55;10.55;;;;;;;7.32;56.01;100628.59;4930980;28;97140;-68
2023/01/20 00:49:58;;;;;;;28.38;11.48;;;;;;;7.58;55.50;100628.81;4932710;28;98493;-68
2023/01/20 00:52:24;;;;;;;24.10;11.60;;;;;;;7.44;55.57;100629.16;4929066;28;97650;-68
2023/01/20 00:54:51;;;;;;;25.63;12.10;;;;;;;7.27;56.00;100631.34;4928318;28;97686;-69
2023/01/20 00:57:18;;;;;;;23.92;10.88;;;;;;;7.50;55.46;100634.25;4932525;28;96922;-68
2023/01/20 00:59:45;;;;;;;28.48;10.85;;;;;;;7.35;55.50;100652.19;4936966;28;97232;-68
2023/01/20 01:02:12;;;;;;;25.08;11.00;;;;;;;7.43;55.12;100645.81;4935811;28;98993;-68
2023/01/20 01:04:38;;;;;;;26.35;10.68;;;;;;;7.36;55.28;100648.63;4925558;28;100708;-68
2023/01/20 01:07:04;;;;;;;29.35;11.30;;;;;;;7.55;55.21;100657.78;4928495;28;97717;-68
2023/01/20 01:09:31;;;;;;;26.27;11.60;;;;;;;7.73;54.09;100660.00;4931320;28;98517;-69
2023/01/20 01:11:58;;;;;;;25.60;12.13;;;;;;;7.99;53.43;100662.81;4925940;28;99281;-69
2023/01/20 01:14:26;;;;;;;24.27;11.07;;;;;;;7.77;53.72;100660.78;4927350;28;99004;-69
2023/01/20 01:16:52;;;;;;;24.25;10.77;;;;;;;7.78;53.80;100665.13;4939520;28;97324;-69
2023/01/20 01:19:19;;;;;;;24.15;11.27;;;;;;;7.98;53.36;100674.25;4935425;28;96789;-68
2023/01/20 01:21:45;;;;;;;25.45;11.80;;;;;;;7.92;53.47;100666.50;4936653;28;102042;-68
2023/01/20 01:24:12;;;;;;;32.58;12.68;;;;;;;7.42;54.71;100665.13;4927807;28;99248;-69
2023/01/20 01:26:38;;;;;;;24.23;11.95;;;;;;;7.56;54.90;100662.16;4928219;28;97207;-69
2023/01/20 01:29:05;;;;;;;24.17;12.25;;;;;;;7.69;54.24;100660.94;4933875;28;97988;-69
2023/01/20 01:31:32;;;;;;;27.95;11.23;;;;;;;7.72;54.21;100665.28;4937351;28;99018;-69
2023/01/20 01:33:59;;;;;;;26.95;11.57;;;;;;;7.70;54.09;100659.19;4937528;28;98757;-69
2023/01/20 01:36:25;;;;;;;26.60;9.93;;;;;;;7.50;54.77;100668.44;4931309;28;97851;-70
2023/01/20 01:38:52;;;;;;;24.77;9.80;;;;;;;7.20;55.24;100661.28;4934458;28;99220;-68
2023/01/20 01:41:18;;;;;;;22.23;11.27;;;;;;;7.42;54.59;100667.75;4928687;28;101606;-70
2023/01/20 01:44:03;;;;;;;21.42;10.13;;;;;;;7.02;55.23;100670.44;4930556;28;98926;-68
2023/01/20 01:46:30;;;;;;;21.08;9.63;;;;;;;6.86;55.70;100670.81;4934838;28;97724;-70
2023/01/20 01:49:00;;;;;;;20.48;9.25;;;;;;;6.82;55.52;100674.41;4932506;28;98370;-68
2023/01/20 01:51:31;;;;;;;26.75;9.45;;;;;;;6.82;55.89;100675.28;4928825;28;99482;-70
2023/01/20 01:54:02;;;;;;;26.02;9.73;;;;;;;6.98;55.54;100676.66;4930326;28;102284;-69
2023/01/20 01:56:30;;;;;;;21.27;10.05;;;;;;;6.82;55.83;100677.03;4925930;28;97202;-68
2023/01/20 01:59:00;;;;;;;22.08;10.68;;;;;;;7.07;55.20;100691.38;4925807;28;96811;-68
2023/01/20 02:01:28;;;;;;;25.90;9.90;;;;;;;6.84;55.91;100683.09;4933400;28;99967;-69
2023/01/20 02:03:59;;;;;;;22.60;10.18;;;;;;;6.73;56.20;100692.06;4923333;28;98980;-69
2023/01/20 02:06:31;;;;;;;22.83;10.00;;;;;;;6.82;56.02;100692.78;4918814;28;97466;-68
2023/01/20 02:08:59;;;;;;;23.13;10.68;;;;;;;6.85;56.04;100703.22;4932385;28;97819;-67
2023/01/20 02:11:25;;;;;;;22.83;9.98;;;;;;;7.02;55.88;100698.50;4926391;28;99302;-71
2023/01/20 02:13:52;;;;;;;19.83;10.40;;;;;;;6.86;55.99;100715.47;4921556;28;97605;-68
2023/01/20 02:16:29;;;;;;;21.42;10.63;;;;;;;6.97;55.74;100716.09;4928583;28;98104;-67
2023/01/20 02:19:17;;;;;;;20.50;9.95;;;;;;;7.10;55.28;100713.16;4931245;28;98557;-67
2023/01/20 02:22:03;;;;;;;25.58;10.65;;;;;;;6.71;56.28;100720.13;4931505;28;99070;-68
2023/01/20 02:25:04;;;;;;;24.55;10.18;;;;;;;6.74;56.41;100717.44;4927811;28;99417;-69
2023/01/20 02:27:45;;;;;;;24.33;10.40;;;;;;;6.53;56.47;100728.38;4917845;28;97333;-68
2023/01/20 02:30:34;;;;;;;23.73;10.32;;;;;;;6.73;56.21;100726.22;4932790;28;96747;-68
2023/01/20 02:33:08;;;;;;;21.65;10.60;;;;;;;6.90;55.94;100731.13;4928180;28;98962;-68
2023/01/20 02:35:42;;;;;;;21.60;10.70;;;;;;;6.85;56.07;100738.22;4928416;28;99459;-68
2023/01/20 02:38:19;;;;;;;28.63;10.43;;;;;;;7.17;55.13;100738.41;4928104;28;97500;-69
2023/01/20 02:40:53;;;;;;;24.67;10.55;;;;;;;7.26;55.09;100747.88;4930036;28;97465;-69
2023/01/20 02:43:28;;;;;;;19.00;10.32;;;;;;;7.24;54.79;100754.06;4927470;28;101676;-69
2023/01/20 02:46:00;;;;;;;19.63;10.35;;;;;;;7.48;54.34;100748.28;4923161;28;99498;-67
2023/01/20 02:48:35;;;;;;;21.77;10.30;;;;;;;7.34;54.56;100752.97;4925621;28;97057;-68
2023/01/20 02:51:07;;;;;;;26.73;10.98;;;;;;;7.06;55.20;100757.94;4927821;28;96847;-68
2023/01/20 02:53:39;;;;;;;24.98;10.70;;;;;;;7.31;54.51;100758.28;4931958;28;99174;-68
2023/01/20 02:56:08;;;;;;;22.35;11.15;;;;;;;7.16;54.78;100765.59;4924480;28;100716;-69
2023/01/20 02:58:40;;;;;;;19.10;10.23;;;;;;;7.15;54.89;100770.91;4934261;28;97209;-69
2023/01/20 03:01:11;;;;;;;22.35;10.77;;;;;;;7.09;55.09;100769.25;4927357;28;97688;-69
2023/01/20 03:03:43;;;;;;;23.13;10.05;;;;;;;7.14;54.94;100775.28;4927365;28;101700;-70
2023/01/20 03:06:19;;;;;;;26.77;10.48;;;;;;;7.05;55.33;100771.97;4940587;28;98829;-69
2023/01/20 03:08:48;;;;;;;21.73;9.80;;;;;;;7.15;55.06;100773.53;4929779;28;96748;-69
2023/01/20 03:11:15;;;;;;;22.15;11.45;;;;;;;7.11;55.06;100771.84;4925602;28;96751;-70
2023/01/20 03:13:46;;;;;;;19.67;9.80;;;;;;;7.00;55.09;100781.72;4928141;28;102251;-68
2023/01/20 03:16:17;;;;;;;23.02;11.15;;;;;;;6.73;56.40;100789.25;4924189;28;99388;-69
2023/01/20 03:18:45;;;;;;;28.25;11.20;;;;;;;6.80;55.92;100795.25;4925468;28;96755;-69
2023/01/20 03:21:13;;;;;;;30.05;11.40;;;;;;;6.92;55.61;100800.25;4924582;28;97727;-69
2023/01/20 03:24:05;;;;;;;20.77;11.07;;;;;;;6.85;55.44;100787.25;5021480;27;96854;-68
2023/01/20 03:26:32;;;;;;;23.60;11.07;;;;;;;6.83;55.58;100795.16;4970277;28;96821;-68
2023/01/20 03:28:58;;;;;;;25.08;11.48;;;;;;;7.17;55.00;100796.22;4962404;28;98155;-69
2023/01/20 03:31:28;;;;;;;26.60;11.57;;;;;;;6.99;55.04;100799.25;4969999;28;99450;-67
2023/01/20 03:33:58;;;;;;;22.92;12.02;;;;;;;6.90;55.55;100802.03;4963959;28;98387;-68
2023/01/20 03:36:27;;;;;;;25.40;11.65;;;;;;;6.73;55.79;100809.38;4967975;28;96788;-68
2023/01/20 03:38:55;;;;;;;23.30;11.82;;;;;;;6.88;55.68;100802.97;4970904;28;98897;-68
2023/01/20 03:41:36;;;;;;;29.00;12.45;;;;;;;6.85;55.88;100806.53;4968314;28;99120;-69
2023/01/20 03:44:11;;;;;;;31.98;13.35;;;;;;;6.85;55.91;100801.28;4966707;28;97046;-68
2023/01/20 03:46:42;;;;;;;27.05;12.10;;;;;;;7.01;55.46;100804.47;4972547;28;97489;-70
2023/01/20 03:49:18;;;;;;;28.10;13.50;;;;;;;6.86;55.79;100810.00;4961453;28;98916;-70
2023/01/20 03:51:56;;;;;;;32.80;13.20;;;;;;;6.88;55.60;100809.09;4970435;28;99831;-69
2023/01/20 03:54:31;;;;;;;28.55;12.70;;;;;;;6.99;55.80;100816.75;4972751;28;96865;-68
2023/01/20 03:57:04;;;;;;;27.60;13.18;;;;;;;6.98;55.77;100818.53;4963878;28;96866;-69
2023/01/20 03:59:34;;;;;;;28.45;14.18;;;;;;;7.04;55.55;100826.28;4972494;28;99609;-69
2023/01/20 04:02:03;;;;;;;29.52;14.38;;;;;;;6.95;55.81;100826.47;4964922;28;99800;-68
2023/01/20 04:04:33;;;;;;;33.13;14.85;;;;;;;6.86;56.11;100820.53;4963520;28;98075;-69
2023/01/20 04:07:00;;;;;;;36.47;16.20;;;;;;;6.73;56.55;100826.00;4962304;28;97006;-68
2023/01/20 04:09:31;;;;;;;32.67;15.43;;;;;;;6.93;56.02;100830.88;4960525;28;98992;-68
2023/01/20 04:11:59;;;;;;;31.63;15.32;;;;;;;6.86;56.01;100836.28;4962543;28;102403;-68
2023/01/20 04:14:26;;;;;;;35.08;17.00;;;;;;;6.94;56.26;100837.00;4967317;28;96910;-68
2023/01/20 04:16:55;;;;;;;36.08;16.25;;;;;;;6.75;56.48;100844.38;4971959;28;97307;-68
2023/01/20 04:19:22;;;;;;;34.83;16.52;;;;;;;7.07;55.76;100843.75;4973926;28;98778;-68
2023/01/20 04:21:53;;;;;;;38.97;17.88;;;;;;;6.84;56.39;100846.81;4968845;28;99125;-68
2023/01/20 04:24:25;;;;;;;38.55;16.67;;;;;;;6.94;56.10;100845.75;4972596;28;97251;-68
2023/01/20 04:26:51;;;;;;;39.53;16.50;;;;;;;6.79;56.24;100843.41;4971311;28;96935;-68
2023/01/20 04:29:19;;;;;;;36.80;16.85;;;;;;;6.68;56.75;100846.25;4972527;28;99068;-67
2023/01/20 04:31:45;;;;;;;36.80;17.48;;;;;;;6.71;57.07;100847.94;4969586;28;98928;-67
2023/01/20 04:34:14;;;;;;;40.28;17.63;;;;;;;6.94;56.50;100850.16;4956742;28;97336;-68
2023/01/20 04:36:41;;;;;;;37.88;17.40;;;;;;;6.89;56.41;100852.00;4948698;28;98023;-68
2023/01/20 04:39:07;;;;;;;39.65;17.60;;;;;;;6.83;56.53;100852.13;4952049;28;101582;-68
2023/01/20 04:41:37;;;;;;;40.10;16.98;;;;;;;6.87;56.43;100859.91;4960056;28;97938;-69
2023/01/20 04:44:03;;;;;;;35.53;17.27;;;;;;;6.76;56.97;100864.50;4955842;28;96860;-67
2023/01/20 04:46:31;;;;;;;34.95;16.60;;;;;;;6.83;56.58;100871.34;4950584;28;97763;-68
2023/01/20 04:48:58;;;;;;;38.33;18.40;;;;;;;6.66;56.51;100871.66;4956749;28;100674;-68
2023/01/20 04:51:25;;;;;;;33.90;17.65;;;;;;;6.92;55.94;100865.06;4950316;28;100750;-68
2023/01/20 04:53:56;;;;;;;37.35;17.17;;;;;;;6.80;56.19;100868.78;4950141;28;97052;-68
2023/01/20 04:56:22;;;;;;;37.15;18.88;;;;;;;6.50;57.23;100872.78;4944821;28;97377;-68
2023/01/20 04:58:49;;;;;;;33.75;17.02;;;;;;;6.62;57.06;100875.25;4956901;28;98496;-67
2023/01/20 05:01:15;;;;;;;37.92;18.92;;;;;;;6.58;57.62;100881.41;4955111;28;98899;-66
2023/01/20 05:03:43;;;;;;;45.08;19.63;;;;;;;6.60;57.02;100884.91;4948574;28;97351;-67
2023/01/20 05:06:10;;;;;;;39.95;18.15;;;;;;;6.39;57.83;100883.47;4946380;28;97422;-67
2023/01/20 05:08:37;;;;;;;51.88;20.23;;;;;;;6.34;58.31;100884.44;4946613;28;99254;-66
2023/01/20 05:11:04;;;;;;;40.08;19.10;;;;;;;6.51;57.77;100886.78;4950865;28;99333;-68
2023/01/20 05:13:30;;;;;;;42.10;19.33;;;;;;;6.37;57.95;100893.13;4958490;28;97470;-70
2023/01/20 05:15:57;;;;;;;43.30;19.35;;;;;;;6.79;56.90;100899.44;4950289;28;97578;-68
2023/01/20 05:18:24;;;;;;;46.60;21.30;;;;;;;6.83;56.83;100900.22;4945264;28;99484;-68
2023/01/20 05:20:51;;;;;;;45.67;21.05;;;;;;;6.66;56.67;100900.53;4940266;28;104933;-68
2023/01/20 05:23:18;;;;;;;42.40;20.10;;;;;;;6.56;56.90;100911.22;4949434;28;97299;-68
2023/01/20 05:25:50;;;;;;;47.80;21.90;;;;;;;6.47;57.26;100917.50;4949465;28;96918;-69
2023/01/20 05:28:16;;;;;;;47.45;20.48;;;;;;;6.46;57.61;100915.75;4943186;28;99605;-68
2023/01/20 05:30:42;;;;;;;35.72;18.13;;;;;;;6.37;57.31;100922.00;4948440;28;99533;-68
2023/01/20 05:33:09;;;;;;;41.13;18.48;;;;;;;6.43;57.21;100925.44;4958743;28;97460;-68
2023/01/20 05:35:37;;;;;;;44.58;19.10;;;;;;;6.44;57.12;100933.28;4943785;28;97526;-68
2023/01/20 05:38:05;;;;;;;45.97;21.77;;;;;;;6.28;57.16;100939.66;4955858;28;100539;-68
2023/01/20 05:40:31;;;;;;;37.50;19.20;;;;;;;6.37;57.14;100937.75;4948873;28;100432;-67
2023/01/20 05:42:58;;;;;;;41.83;20.23;;;;;;;6.23;57.32;100939.75;4956241;28;98463;-68
2023/01/20 05:45:25;;;;;;;44.88;20.23;;;;;;;6.40;56.79;100940.34;4942087;28;97575;-68
2023/01/20 05:47:55;;;;;;;39.13;19.35;;;;;;;5.91;58.44;100948.03;4952901;28;101470;-69
2023/01/20 05:50:22;;;;;;;38.28;19.88;;;;;;;6.32;57.58;100949.22;4950476;28;99076;-69
2023/01/20 05:52:48;;;;;;;42.42;18.88;;;;;;;6.33;57.05;100957.06;4950789;28;97910;-68
2023/01/20 05:55:16;;;;;;;43.40;20.27;;;;;;;6.21;57.55;100956.38;4947088;28;97506;-69
2023/01/20 05:57:42;;;;;;;38.65;19.88;;;;;;;6.37;57.09;100956.13;4953056;28;99691;-69
2023/01/20 06:00:11;;;;;;;47.03;20.05;;;;;;;6.26;57.46;100965.06;4952679;28;98774;-69
2023/01/20 06:02:37;;;;;;;42.42;20.30;;;;;;;6.32;57.22;100975.47;4952658;28;96745;-69
2023/01/20 06:05:05;;;;;;;40.30;19.75;;;;;;;6.38;56.59;100972.75;4951355;28;97698;-68
2023/01/20 06:07:31;;;;;;;38.60;19.40;;;;;;;6.35;56.98;100975.44;4955149;28;100285;-70
2023/01/20 06:09:57;;;;;;;46.45;20.30;;;;;;;6.26;57.35;100986.03;4960590;28;99023;-68
2023/01/20 06:12:25;;;;;;;41.00;20.15;;;;;;;6.26;57.30;100986.03;4949382;28;97091;-68
2023/01/20 06:14:52;;;;;;;44.75;19.90;;;;;;;6.34;56.83;100985.06;4952026;28;96900;-68
2023/01/20 06:17:18;;;;;;;40.08;19.17;;;;;;;6.26;56.89;100996.53;4948941;28;99310;-68
2023/01/20 06:19:45;;;;;;;39.90;19.15;;;;;;;6.09;57.15;100998.53;4944166;28;99083;-68
2023/01/20 06:22:14;;;;;;;40.08;18.73;;;;;;;6.31;56.63;100999.97;4945750;28;98191;-68
2023/01/20 06:24:41;;;;;;;35.25;18.58;;;;;;;6.14;56.91;100996.72;4950694;28;97450;-68
2023/01/20 06:27:14;;;;;;;39.65;18.38;;;;;;;6.34;56.53;100999.94;4951790;28;99075;-70
2023/01/20 06:29:41;;;;;;;39.90;18.63;;;;;;;6.56;56.19;101009.25;4947980;28;99283;-69
2023/01/20 06:32:08;;;;;;;38.85;18.65;;;;;;;6.69;55.79;101016.06;4953747;28;97018;-68
2023/01/20 06:34:35;;;;;;;35.70;18.52;;;;;;;6.34;56.18;101020.94;4952930;28;100056;-69
2023/01/20 06:37:02;;;;;;;37.20;18.67;;;;;;;6.48;56.08;101019.00;4950569;28;101111;-69
2023/01/20 06:39:29;;;;;;;37.55;19.55;;;;;;;6.45;56.07;101028.66;4946845;28;98862;-69
2023/01/20 06:41:57;;;;;;;38.45;18.63;;;;;;;6.25;56.76;101035.03;4945712;28;97243;-69
2023/01/20 06:44:24;;;;;;;42.22;19.67;;;;;;;6.70;55.45;101043.16;4956315;28;97158;-69
2023/01/20 06:46:52;;;;;;;40.22;19.02;;;;;;;6.80;55.26;101043.00;4950291;28;99471;-69
2023/01/20 06:49:18;;;;;;;38.28;19.63;;;;;;;6.56;55.62;101046.00;4956673;28;98208;-69
2023/01/20 06:51:46;;;;;;;41.83;19.42;;;;;;;6.40;55.81;101060.22;4954860;28;97464;-68
2023/01/20 06:54:13;;;;;;;42.60;19.27;;;;;;;6.44;56.35;101066.28;4949219;28;96975;-70
2023/01/20 06:56:39;;;;;;;40.08;20.10;;;;;;;6.61;55.76;101065.19;4950069;28;99266;-68
2023/01/20 06:59:05;;;;;;;44.33;21.02;;;;;;;6.30;56.30;101067.31;4940995;28;99261;-69
2023/01/20 07:01:32;;;;;;;50.78;20.60;;;;;;;6.29;56.42;101070.88;4944269;28;98535;-70
2023/01/20 07:04:00;;;;;;;38.08;20.25;;;;;;;6.38;56.51;101067.22;4946677;28;96923;-70
2023/01/20 07:06:29;;;;;;;42.30;20.30;;;;;;;6.37;56.70;101078.63;4951606;28;99198;-68
2023/01/20 07:08:55;;;;;;;45.47;21.20;;;;;;;6.39;56.26;101080.34;4947917;28;99351;-69
2023/01/20 07:11:22;;;;;;;47.78;22.05;;;;;;;6.20;56.27;101083.22;4954427;28;96868;-68
2023/01/20 07:13:49;;;;;;;41.47;20.88;;;;;;;6.47;55.82;101089.88;4953298;28;96782;-70
2023/01/20 07:16:15;;;;;;;43.00;19.45;;;;;;;6.20;56.57;101093.72;4949268;28;100998;-70
2023/01/20 07:18:43;;;;;;;39.75;19.50;;;;;;;6.11;56.16;101099.06;4949421;28;98814;-71
2023/01/20 07:21:11;;;;;;;46.55;20.10;;;;;;;5.75;57.36;101102.94;4952718;28;97486;-69
2023/01/20 07:23:40;;;;;;;45.28;19.67;;;;;;;6.10;56.95;101105.22;4952192;28;96956;-70
2023/01/20 07:26:08;;;;;;;42.00;19.00;;;;;;;5.98;57.12;101111.44;4948220;28;99211;-70
2023/01/20 07:28:36;;;;;;;38.08;18.55;;;;;;;6.22;56.48;101112.94;4940941;28;98920;-68
2023/01/20 07:31:03;;;;;;;46.95;21.05;;;;;;;6.16;56.40;101121.75;4953548;28;97596;-69
2023/01/20 07:33:33;;;;;;;39.40;19.45;;;;;;;6.14;56.62;101126.16;4953277;28;97344;-70
2023/01/20 07:36:00;;;;;;;45.25;19.38;;;;;;;5.92;57.15;101125.50;4954072;28;99035;-67
2023/01/20 07:38:28;;;;;;;43.75;18.67;;;;;;;5.90;57.80;101123.81;4957136;28;99194;-68
2023/01/20 07:40:57;;;;;;;42.15;19.40;;;;;;;5.95;57.00;101129.88;4953865;28;98590;-67
2023/01/20 07:43:23;;;;;;;45.00;19.27;;;;;;;6.14;56.49;101127.91;4958340;28;96953;-70
2023/01/20 07:45:50;;;;;;;40.35;19.60;;;;;;;6.05;57.02;101135.88;4954033;28;99287;-68
2023/01/20 07:48:16;;;;;;;45.08;19.27;;;;;;;6.14;57.09;101128.78;4958595;28;98892;-69
2023/01/20 07:50:43;;;;;;;46.60;19.27;;;;;;;6.09;56.75;101138.47;4949827;28;97314;-70
2023/01/20 07:53:09;;;;;;;51.47;21.63;;;;;;;6.10;56.65;101137.59;4948317;28;96993;-69
2023/01/20 07:55:39;;;;;;;47.83;21.38;;;;;;;6.16;57.21;101141.88;4942176;28;99475;-70
2023/01/20 07:58:05;;;;;;;49.72;20.42;;;;;;;6.13;56.67;101140.16;4941148;28;99251;-69
2023/01/20 08:00:32;;;;;;;48.08;22.25;;;;;;;6.11;57.33;101148.91;4949316;28;96907;-67
2023/01/20 08:02:59;;;;;;;52.50;21.48;;;;;;;6.34;56.47;101147.78;4941904;28;98572;-70
2023/01/20 08:05:25;;;;;;;51.90;22.48;;;;;;;6.33;56.39;101151.28;4948223;28;99178;-66
2023/01/20 08:07:52;;;;;;;50.55;20.60;;;;;;;6.35;56.45;101160.03;4961142;28;98968;-68
2023/01/20 08:10:19;;;;;;;46.05;20.45;;;;;;;6.19;56.59;101162.81;4952121;28;97982;-68
2023/01/20 08:12:47;;;;;;;43.10;20.35;;;;;;;6.14;56.85;101160.25;4949280;28;98751;-68
2023/01/20 08:15:14;;;;;;;49.88;20.55;;;;;;;6.08;57.05;101168.19;4953393;28;98817;-69
2023/01/20 08:17:40;;;;;;;49.85;20.70;;;;;;;6.42;56.28;101168.69;4957689;28;97767;-69
2023/01/20 08:20:09;;;;;;;45.63;21.33;;;;;;;6.35;56.24;101165.28;4958402;28;98487;-68
2023/01/20 08:22:36;;;;;;;52.03;21.25;;;;;;;6.15;56.60;101167.25;4948266;28;97700;-68
2023/01/20 08:25:02;;;;;;;49.05;21.13;;;;;;;6.15;56.68;101172.50;4944662;28;99816;-68
2023/01/20 08:27:29;;;;;;;47.33;21.02;;;;;;;5.99;57.02;101174.41;4951845;28;98787;-68
2023/01/20 08:29:57;;;;;;;48.47;21.60;;;;;;;5.82;57.85;101176.28;4947871;28;96869;-68
2023/01/20 08:32:23;;;;;;;48.83;19.70;;;;;;;5.98;58.04;101182.28;4950052;28;96855;-69
2023/01/20 08:34:50;;;;;;;56.45;21.92;;;;;;;6.24;57.04;101185.50;4950694;28;98871;-69
2023/01/20 08:37:16;;;;;;;49.70;21.98;;;;;;;6.29;57.16;101185.47;4954808;28;97524;-69
2023/01/20 08:39:43;;;;;;;45.80;20.88;;;;;;;6.52;56.46;101186.06;4954325;28;96840;-69
2023/01/20 08:42:09;;;;;;;45.97;21.08;;;;;;;6.33;56.29;101195.03;4953350;28;99121;-69
2023/01/20 08:44:36;;;;;;;49.33;22.02;;;;;;;6.13;56.78;101187.38;4951632;28;98908;-68
2023/01/20 08:47:04;;;;;;;49.47;23.35;;;;;;;6.31;57.13;101194.19;4942965;28;101326;-69
2023/01/20 08:49:30;;;;;;;51.28;23.73;;;;;;;6.56;55.89;101195.66;4951920;28;96825;-68
2023/01/20 08:51:57;;;;;;;51.78;23.55;;;;;;;6.82;55.05;101197.97;4955721;28;97415;-68
2023/01/20 08:54:24;;;;;;;64.15;23.73;;;;;;;6.77;54.72;101192.75;4956469;28;98918;-68
2023/01/20 08:56:51;;;;;;;52.00;24.42;;;;;;;6.86;54.72;101201.41;4962858;28;99236;-68
2023/01/20 08:59:18;;;;;;;73.18;24.88;;;;;;;6.91;54.62;101204.84;4949478;28;96945;-67
2023/01/20 09:01:45;;;;;;;65.65;25.83;;;;;;;6.80;54.58;101207.63;4939259;28;97092;-68
2023/01/20 09:04:13;;;;;;;68.32;25.08;;;;;;;6.88;54.86;101207.53;4949273;28;98917;-69
2023/01/20 09:06:42;;;;;;;62.47;25.17;;;;;;;6.95;54.44;101219.69;4947466;28;99524;-69
2023/01/20 09:09:08;;;;;;;55.42;24.50;;;;;;;6.90;54.61;101224.09;4947490;28;97451;-68
2023/01/20 09:11:35;;;;;;;53.72;22.65;;;;;;;6.68;55.13;101231.41;4954350;28;97347;-69
2023/01/20 09:14:01;;;;;;;65.75;24.55;;;;;;;6.54;55.46;101234.19;4946958;28;102843;-69
2023/01/20 09:16:27;;;;;;;55.80;22.90;;;;;;;6.83;55.12;101230.34;4944023;28;100050;-69
2023/01/20 09:18:54;;;;;;;50.47;23.63;;;;;;;6.79;55.18;101240.03;4949490;28;96877;-69
2023/01/20 09:21:22;;;;;;;53.10;22.52;;;;;;;6.65;55.37;101244.56;4954794;28;97183;-69
2023/01/20 09:23:49;;;;;;;49.60;21.75;;;;;;;6.57;55.66;101249.88;4944314;28;98874;-69
2023/01/20 09:26:15;;;;;;;62.20;27.50;;;;;;;6.48;55.83;101249.13;4954701;28;99852;-69
2023/01/20 09:28:45;;;;;;;48.60;22.27;;;;;;;6.43;55.77;101256.19;4953284;28;97070;-68
2023/01/20 09:31:12;;;;;;;50.50;22.23;;;;;;;6.68;55.04;101255.91;4952955;28;97141;-69
2023/01/20 09:33:40;;;;;;;53.92;23.40;;;;;;;6.48;56.04;101254.38;4944885;28;100954;-68
2023/01/20 09:36:09;;;;;;;54.13;23.92;;;;;;;6.78;55.32;101264.53;4949935;28;101792;-68
2023/01/20 09:44:24;;;;;;;52.95;23.33;;;;;;;7.25;53.91;101274.47;4941282;28;98079;-68
2023/01/20 09:47:19;;;;;;;70.78;25.85;;;;;;;6.98;54.21;101275.69;4941923;28;99042;-69
2023/01/20 09:53:03;;;;;;;51.47;22.15;;;;;;;7.38;53.23;101281.28;4938318;28;96833;-69
2023/01/20 09:55:39;;;;;;;49.40;22.38;;;;;;;7.41;52.70;101278.63;4948931;28;99163;-70
2023/01/20 09:58:13;;;;;;;49.83;23.17;;;;;;;7.17;53.18;101279.81;4946703;28;99044;-69
2023/01/20 10:00:42;;;;;;;51.13;22.67;;;;;;;7.17;53.75;101285.06;4947514;28;97687;-70
2023/01/20 10:03:28;;;;;;;48.67;21.23;;;;;;;7.05;53.84;101289.59;4942887;28;97673;-69
2023/01/20 10:05:58;;;;;;;54.15;23.55;;;;;;;7.12;53.61;101296.53;4952433;28;99021;-69
2023/01/20 10:08:32;;;;;;;47.35;22.20;;;;;;;7.23;53.63;101286.75;4947014;28;98983;-69
2023/01/20 10:11:07;;;;;;;56.90;24.85;;;;;;;7.48;53.02;101290.75;4947298;28;96893;-69
2023/01/20 10:13:39;;;;;;;60.35;25.60;;;;;;;7.66;52.12;101294.91;4945513;28;97742;-69
2023/01/20 10:16:11;;;;;;;51.00;23.80;;;;;;;7.15;53.13;101299.13;4950543;28;99248;-68
2023/01/20 10:18:43;;;;;;;51.40;22.92;;;;;;;7.17;53.21;101302.59;4953983;28;101682;-69
2023/01/20 10:21:17;;;;;;;48.22;21.92;;;;;;;7.34;52.63;101303.25;4957862;28;97337;-69
2023/01/20 10:23:50;;;;;;;50.30;21.73;;;;;;;7.33;52.77;101304.16;4947741;28;98556;-68
2023/01/20 10:26:25;;;;;;;49.78;23.05;;;;;;;7.30;52.90;101300.66;4946901;28;98954;-70
2023/01/20 10:28:58;;;;;;;45.58;23.52;;;;;;;7.63;52.13;101304.59;4945588;28;97608;-69
2023/01/20 10:31:27;;;;;;;54.97;22.52;;;;;;;7.89;51.44;101302.44;4947997;28;99266;-70
2023/01/20 10:33:55;;;;;;;50.40;21.08;;;;;;;7.56;51.99;101301.19;4941653;28;96959;-69
2023/01/20 10:36:27;;;;;;;56.50;24.83;;;;;;;7.44;52.00;101311.88;4950797;28;98911;-69
2023/01/20 10:38:57;;;;;;;50.08;23.00;;;;;;;7.67;52.01;101307.19;4954400;28;99029;-70
2023/01/20 10:41:31;;;;;;;49.10;22.85;;;;;;;7.70;51.67;101311.50;4951412;28;96877;-70
2023/01/20 10:43:59;;;;;;;57.17;25.23;;;;;;;7.86;51.31;101310.41;4956051;28;97228;-69
2023/01/20 10:46:51;;;;;;;53.95;23.27;;;;;;;7.79;51.28;101308.75;4942202;28;99183;-69
2023/01/20 10:49:51;;;;;;;50.20;22.25;;;;;;;7.68;51.67;101313.31;4943683;28;97726;-70
2023/01/20 10:52:32;;;;;;;54.22;22.88;;;;;;;7.66;52.11;101307.19;4941327;28;97046;-70
2023/01/20 10:55:07;;;;;;;50.65;24.23;;;;;;;7.38;52.57;101318.09;4946494;28;97079;-69
2023/01/20 10:57:37;;;;;;;44.83;22.73;;;;;;;7.26;52.83;101315.63;4952392;28;98870;-69
2023/01/20 11:00:07;;;;;;;44.08;21.88;;;;;;;7.42;52.80;101304.00;4944295;28;98904;-69
2023/01/20 11:02:36;;;;;;;53.38;24.75;;;;;;;7.88;51.67;101316.47;4938147;28;98261;-70
2023/01/20 11:05:16;;;;;;;48.30;22.15;;;;;;;7.61;51.64;101310.75;4946416;28;97737;-69
2023/01/20 11:07:44;;;;;;;46.53;22.48;;;;;;;7.55;51.96;101318.72;4933208;28;99065;-69
2023/01/20 11:10:15;;;;;;;47.97;23.60;;;;;;;7.59;52.05;101320.44;4940478;28;98576;-68
2023/01/20 11:12:44;;;;;;;52.70;23.55;;;;;;;7.69;51.64;101328.19;4943285;28;98150;-70
2023/01/20 11:15:17;;;;;;;50.05;24.58;;;;;;;7.61;51.99;101321.25;4950196;28;99074;-69
2023/01/20 11:17:44;;;;;;;51.08;25.35;;;;;;;8.03;50.79;101326.78;4951031;28;98954;-69
2023/01/20 11:20:19;;;;;;;53.47;25.33;;;;;;;7.92;50.89;101331.34;4955629;28;98987;-69
2023/01/20 11:22:47;;;;;;;49.05;23.05;;;;;;;7.27;52.26;101333.16;4945024;28;97373;-69
2023/01/20 11:25:23;;;;;;;57.30;25.25;;;;;;;7.50;52.37;101323.19;4944674;28;97649;-69
2023/01/20 11:27:53;;;;;;;54.10;19.60;;;;;;;7.51;52.06;101335.44;4942200;28;98515;-69
2023/01/20 11:30:26;;;;;;;46.42;23.85;;;;;;;7.69;51.75;101326.41;4951360;28;98912;-68
2023/01/20 11:33:09;;;;;;;51.05;24.30;;;;;;;7.21;53.15;101327.97;4949873;28;100477;-70
2023/01/20 11:35:36;;;;;;;58.53;25.40;;;;;;;7.59;52.44;101323.06;4947930;28;97014;-71